地図

経路データ

SID SEASON NUMBER BASIN SUBBASIN NAME ISO_TIME NATURE LAT LON WMO_WIND WMO_PRES WMO_AGENCY TRACK_TYPE DIST2LAND LANDFALL IFLAG USA_AGENCY USA_ATCF_ID USA_LAT USA_LON USA_RECORD USA_STATUS USA_WIND USA_PRES USA_SSHS USA_R34_NE USA_R34_SE USA_R34_SW USA_R34_NW USA_R50_NE USA_R50_SE USA_R50_SW USA_R50_NW USA_R64_NE USA_R64_SE USA_R64_SW USA_R64_NW USA_POCI USA_ROCI USA_RMW USA_EYE TOKYO_LAT TOKYO_LON TOKYO_GRADE TOKYO_WIND TOKYO_PRES TOKYO_R50_DIR TOKYO_R50_LONG TOKYO_R50_SHORT TOKYO_R30_DIR TOKYO_R30_LONG TOKYO_R30_SHORT TOKYO_LAND CMA_LAT CMA_LON CMA_CAT CMA_WIND CMA_PRES HKO_LAT HKO_LON HKO_CAT HKO_WIND HKO_PRES NEWDELHI_LAT NEWDELHI_LON NEWDELHI_GRADE NEWDELHI_WIND NEWDELHI_PRES NEWDELHI_CI NEWDELHI_DP NEWDELHI_POCI REUNION_LAT REUNION_LON REUNION_TYPE REUNION_WIND REUNION_PRES REUNION_TNUM REUNION_CI REUNION_RMW REUNION_R34_NE REUNION_R34_SE REUNION_R34_SW REUNION_R34_NW REUNION_R50_NE REUNION_R50_SE REUNION_R50_SW REUNION_R50_NW REUNION_R64_NE REUNION_R64_SE REUNION_R64_SW REUNION_R64_NW BOM_LAT BOM_LON BOM_TYPE BOM_WIND BOM_PRES BOM_TNUM BOM_CI BOM_RMW BOM_R34_NE BOM_R34_SE BOM_R34_SW BOM_R34_NW BOM_R50_NE BOM_R50_SE BOM_R50_SW BOM_R50_NW BOM_R64_NE BOM_R64_SE BOM_R64_SW BOM_R64_NW BOM_ROCI BOM_POCI BOM_EYE BOM_POS_METHOD BOM_PRES_METHOD NADI_LAT NADI_LON NADI_CAT NADI_WIND NADI_PRES WELLINGTON_LAT WELLINGTON_LON WELLINGTON_WIND WELLINGTON_PRES DS824_LAT DS824_LON DS824_STAGE DS824_WIND DS824_PRES TD9636_LAT TD9636_LON TD9636_STAGE TD9636_WIND TD9636_PRES TD9635_LAT TD9635_LON TD9635_WIND TD9635_PRES TD9635_ROCI NEUMANN_LAT NEUMANN_LON NEUMANN_CLASS NEUMANN_WIND NEUMANN_PRES MLC_LAT MLC_LON MLC_CLASS MLC_WIND MLC_PRES USA_GUST BOM_GUST BOM_GUST_PER REUNION_GUST REUNION_GUST_PER USA_SEAHGT USA_SEARAD_NE USA_SEARAD_SE USA_SEARAD_SW USA_SEARAD_NW STORM_SPEED STORM_DIR
1981339N11089 1981 112 NI BB NOT_NAMED 1981-12-05 02:00:00 NR 10.6000 88.8000 main 839 819 __________O___ -1 10.6000 88.8000 0 20 17 279
1981339N11089 1981 112 NI BB NOT_NAMED 1981-12-05 03:00:00 NR 10.6464 88.5115 main 809 734 __________P___ -1 10.6464 88.5115 0 20 17 278
1981339N11089 1981 112 NI BB NOT_NAMED 1981-12-05 06:00:00 NR 10.7541 87.6342 main 729 670 O_________P___ jtwc_io IO031981 10.7000 87.5000 20 -1 10.7721 87.6789 0 21 16 277
1981339N11089 1981 112 NI BB NOT_NAMED 1981-12-05 09:00:00 NR 10.8259 86.9207 main 660 620 P_________P___ IO031981 10.7730 86.8276 22 -1 10.8524 86.9673 0 22 12 274
1981339N11089 1981 112 NI BB NOT_NAMED 1981-12-05 12:00:00 NR 10.8319 86.4393 main 610 601 O_________P___ jtwc_io IO031981 10.8000 86.4000 25 -1 10.8558 86.4688 0 24 7 266
1981339N11089 1981 112 NI BB NOT_NAMED 1981-12-05 14:00:00 NR 10.7866 86.3238 main 601 601 P_________O___ IO031981 10.7732 86.3476 25 -1 10.8000 86.3000 0 25 3 232
1981339N11089 1981 112 NI BB NOT_NAMED 1981-12-05 15:00:00 NR 10.7484 86.3267 main 596 596 P_________P___ IO031981 10.7448 86.3799 25 -1 10.7520 86.2735 0 25 4 141
1981339N11089 1981 112 NI BB NOT_NAMED 1981-12-05 18:00:00 NR 10.5771 86.4931 main 611 606 O_________P___ jtwc_io IO031981 10.6000 86.6000 25 -1 10.5542 86.3863 0 25 6 135
1981339N11089 1981 112 NI BB NOT_NAMED 1981-12-05 21:00:00 NR 10.3205 86.7691 main 626 626 P_________P___ IO031981 10.2976 86.8577 25 -1 10.3435 86.6804 0 25 7 127
1981339N11089 1981 112 NI BB NOT_NAMED 1981-12-06 00:00:00 NR 10.1534 87.0591 main 651 646 O_________P___ jtwc_io IO031981 10.1000 87.1000 25 -1 10.2068 87.0182 0 25 5 108
1981339N11089 1981 112 NI BB NOT_NAMED 1981-12-06 02:00:00 NR 10.1857 87.1879 main 661 661 P_________O___ IO031981 10.1713 87.1757 25 -1 10.2000 87.2000 1 25 4 56
1981339N11089 1981 112 NI BB NOT_NAMED 1981-12-06 03:00:00 NR 10.2529 87.2100 main 666 666 P_________P___ IO031981 10.2525 87.1949 25 -1 10.2533 87.2252 1 25 6 7
1981339N11089 1981 112 NI BB NOT_NAMED 1981-12-06 06:00:00 NR 10.5624 87.2228 main 680 680 O_________P___ jtwc_io IO031981 10.6000 87.2000 25 -1 10.5248 87.2457 1 26 7 358
1981339N11089 1981 112 NI BB NOT_NAMED 1981-12-06 09:00:00 NR 10.9503 87.1827 main 699 699 P_________P___ IO031981 10.9925 87.1576 27 -1 10.9082 87.2079 1 27 8 353
1981339N11089 1981 112 NI BB NOT_NAMED 1981-12-06 12:00:00 NR 11.3657 87.1215 main 709 709 O_________P___ jtwc_io IO031981 11.4000 87.1000 30 -1 11.3313 87.1430 1 29 8 353
1981339N11089 1981 112 NI BB NOT_NAMED 1981-12-06 14:00:00 NR 11.6106 87.0987 main 720 720 P_________O___ IO031981 11.6212 87.0975 30 -1 11.6000 87.1000 1 30 7 358
1981339N11089 1981 112 NI BB NOT_NAMED 1981-12-06 15:00:00 NR 11.7127 87.0970 main 725 725 P_________P___ IO031981 11.7225 87.0999 30 -1 11.7029 87.0941 1 30 6 357
1981339N11089 1981 112 NI BB NOT_NAMED 1981-12-06 18:00:00 NR 11.9979 87.0887 main 729 714 O_________P___ jtwc_io IO031981 12.0000 87.1000 30 -1 11.9958 87.0774 1 31 6 355
1981339N11089 1981 112 NI BB NOT_NAMED 1981-12-06 21:00:00 NR 12.2635 87.0575 main 706 683 P_________P___ IO031981 12.2575 87.0575 32 -1 12.2695 87.0575 1 32 5 352
1981339N11089 1981 112 NI BB NOT_NAMED 1981-12-07 00:00:00 NR 12.5151 87.0140 main 683 668 O_________P___ jtwc_io IO031981 12.5000 87.0000 35 0 12.5302 87.0280 1 34 5 350
1981339N11089 1981 112 NI BB NOT_NAMED 1981-12-07 02:00:00 NR 12.6833 86.9833 main 668 660 P_________O___ IO031981 12.6667 86.9667 35 0 12.7000 87.0000 2 35 5 351
1981339N11089 1981 112 NI BB NOT_NAMED 1981-12-07 03:00:00 NR 12.7714 86.9665 main 660 638 P_________P___ IO031981 12.7500 86.9500 35 0 12.7928 86.9830 2 35 5 348
1981339N11089 1981 112 NI BB NOT_NAMED 1981-12-07 06:00:00 NR 13.0342 86.9106 main 638 617 O_________P___ jtwc_io IO031981 13.0000 86.9000 35 0 13.0684 86.9213 2 36 5 348
1981339N11089 1981 112 NI BB NOT_NAMED 1981-12-07 09:00:00 NR 13.2936 86.8519 main 617 595 P_________P___ IO031981 13.2575 86.8575 37 0 13.3298 86.8463 2 37 5 346
1981339N11089 1981 112 NI BB NOT_NAMED 1981-12-07 12:00:00 NR 13.5322 86.7805 main 595 573 O_________P___ jtwc_io IO031981 13.5000 86.8000 40 0 13.5645 86.7610 2 39 5 342
1981339N11089 1981 112 NI BB NOT_NAMED 1981-12-07 14:00:00 NR 13.6761 86.7206 main 573 573 P_________O___ IO031981 13.6521 86.7412 40 0 13.7000 86.7000 2 40 5 337
1981339N11089 1981 112 NI BB NOT_NAMED 1981-12-07 15:00:00 NR 13.7380 86.6869 main 573 551 P_________P___ IO031981 13.7225 86.7075 40 0 13.7535 86.6663 2 40 4 327
1981339N11089 1981 112 NI BB NOT_NAMED 1981-12-07 18:00:00 NR 13.8922 86.5791 main 551 535 O_________P___ jtwc_io IO031981 13.9000 86.6000 40 0 13.8845 86.5582 2 41 3 321
1981339N11089 1981 112 NI BB NOT_NAMED 1981-12-07 21:00:00 NR 13.9965 86.4746 main 535 520 P_________P___ IO031981 14.0000 86.5000 42 0 13.9929 86.4493 2 42 3 317
1981339N11089 1981 112 NI BB NOT_NAMED 1981-12-08 00:00:00 NR 14.1035 86.3761 main 520 504 O_________P___ jtwc_io IO031981 14.1000 86.4000 45 0 14.1070 86.3521 2 44 3 323
1981339N11089 1981 112 NI BB NOT_NAMED 1981-12-08 02:00:00 NR 14.2088 86.3112 main 504 496 P_________O___ IO031981 14.2175 86.3225 46 0 14.2000 86.3000 2 45 4 330
1981339N11089 1981 112 NI BB NOT_NAMED 1981-12-08 03:00:00 NR 14.2721 86.2803 main 496 472 P_________P___ IO031981 14.2850 86.2850 47 0 14.2591 86.2755 2 46 4 340
1981339N11089 1981 112 NI BB NOT_NAMED 1981-12-08 06:00:00 NR 14.4787 86.2080 main 472 456 O_________P___ jtwc_io IO031981 14.5000 86.2000 50 0 14.4575 86.2159 2 49 4 347
1981339N11089 1981 112 NI BB NOT_NAMED 1981-12-08 09:00:00 NR 14.6838 86.1798 main 456 440 P_________P___ IO031981 14.6850 86.1775 55 0 14.6826 86.1822 2 53 4 0
1981339N11089 1981 112 NI BB NOT_NAMED 1981-12-08 12:00:00 NR 14.9140 86.1902 main 440 422 O_________P___ jtwc_io IO031981 14.9000 86.2000 60 0 14.9281 86.1804 2 57 5 1
1981339N11089 1981 112 NI BB NOT_NAMED 1981-12-08 14:00:00 NR 15.0948 86.2073 main 422 412 P_________O___ IO031981 15.0896 86.2146 61 0 15.1000 86.2000 4 60 6 6
1981339N11089 1981 112 NI BB NOT_NAMED 1981-12-08 15:00:00 NR 15.1893 86.2238 main 412 391 P_________P___ IO031981 15.1925 86.2275 62 0 15.1862 86.2202 4 60 6 14
1981339N11089 1981 112 NI BB NOT_NAMED 1981-12-08 18:00:00 NR 15.4782 86.3049 main 391 380 O_________P___ jtwc_io IO031981 15.5000 86.3000 65 1 15.4564 86.3098 4 63 6 21
1981339N11089 1981 112 NI BB NOT_NAMED 1981-12-08 21:00:00 NR 15.7470 86.4406 main 380 362 P_________P___ IO031981 15.7575 86.4574 67 1 15.7365 86.4238 4 65 6 26
1981339N11089 1981 112 NI BB NOT_NAMED 1981-12-09 00:00:00 NR 16.0086 86.5686 main 369 354 O_________P___ jtwc_io IO031981 16.0000 86.6000 70 1 16.0172 86.5372 4 68 6 21
1981339N11089 1981 112 NI BB NOT_NAMED 1981-12-09 02:00:00 NR 16.1833 86.6092 main 354 354 P_________O___ IO031981 16.1666 86.6184 71 1 16.2000 86.6000 4 70 5 10
1981339N11089 1981 112 NI BB NOT_NAMED 1981-12-09 03:00:00 NR 16.2609 86.6168 main 346 331 P_________P___ IO031981 16.2500 86.6151 72 1 16.2719 86.6185 4 70 5 0
1981339N11089 1981 112 NI BB NOT_NAMED 1981-12-09 06:00:00 NR 16.4880 86.6286 main 331 323 O_________P___ jtwc_io IO031981 16.5000 86.6000 75 1 16.4761 86.6573 4 71 5 4
1981339N11089 1981 112 NI BB NOT_NAMED 1981-12-09 09:00:00 NR 16.7109 86.6642 main 323 299 P_________P___ IO031981 16.7275 86.6500 75 1 16.6944 86.6784 4 72 5 8
1981339N11089 1981 112 NI BB NOT_NAMED 1981-12-09 12:00:00 NR 16.9837 86.6957 main 299 285 O_________P___ jtwc_io IO031981 17.0000 86.7000 75 1 16.9675 86.6913 4 74 6 6
1981339N11089 1981 112 NI BB NOT_NAMED 1981-12-09 14:00:00 NR 17.2106 86.7013 main 285 278 P_________O___ IO031981 17.2212 86.7026 73 1 17.2000 86.7000 4 75 7 4
1981339N11089 1981 112 NI BB NOT_NAMED 1981-12-09 15:00:00 NR 17.3434 86.6964 main 278 242 P_________P___ IO031981 17.3475 86.7001 72 1 17.3394 86.6928 4 73 9 0
1981339N11089 1981 112 NI BB NOT_NAMED 1981-12-09 18:00:00 NR 17.8110 86.6823 main 242 189 O_________P___ jtwc_io IO031981 17.8000 86.7000 70 1 17.8220 86.6645 4 70 10 359
1981339N11089 1981 112 NI BB NOT_NAMED 1981-12-09 21:00:00 NR 18.3749 86.6961 main 179 119 P_________P___ IO031981 18.3700 86.7350 65 1 18.3797 86.6571 4 66 12 3
1981339N11089 1981 112 NI BB NOT_NAMED 1981-12-10 00:00:00 NR 18.9922 86.7553 main 119 79 O_________P___ jtwc_io IO031981 19.0000 86.8000 60 0 18.9845 86.7105 4 62 12 6
1981339N11089 1981 112 NI BB NOT_NAMED 1981-12-10 02:00:00 NR 19.3972 86.8106 main 79 61 P_________O___ IO031981 19.3944 86.8213 58 0 19.4000 86.8000 4 60 12 9
1981339N11089 1981 112 NI BB NOT_NAMED 1981-12-10 03:00:00 NR 19.5945 86.8443 main 61 33 P_________P___ IO031981 19.5923 86.8407 57 0 19.5967 86.8480 4 59 13 14
1981339N11089 1981 112 NI BB NOT_NAMED 1981-12-10 06:00:00 NR 20.2014 87.0266 main 33 23 O_________P___ jtwc_io IO031981 20.2000 87.0000 55 0 20.2027 87.0533 4 56 13 22
1981339N11089 1981 112 NI BB NOT_NAMED 1981-12-10 09:00:00 NR 20.8355 87.3716 main 41 33 P_________P___ IO031981 20.8425 87.3750 52 0 20.8284 87.3683 4 54 15 31
1981339N11089 1981 112 NI BB NOT_NAMED 1981-12-10 12:00:00 NR 21.4842 87.8580 main 24 0 O_________P___ jtwc_io IO031981 21.5000 87.9000 50 0 21.4684 87.8160 4 51 16 37
1981339N11089 1981 112 NI BB NOT_NAMED 1981-12-10 14:00:00 NR 21.9155 88.2373 main 0 0 P_________O___ IO031981 21.9361 88.2869 46 0 21.9000 88.2000 4 50 17 40
1981339N11089 1981 112 NI BB NOT_NAMED 1981-12-10 15:00:00 NR 22.1311 88.4464 main 0 0 P_________P___ IO031981 22.1529 88.4865 45 0 22.1166 88.4197 4 47 18 44
1981339N11089 1981 112 NI BB NOT_NAMED 1981-12-10 18:00:00 NR 22.7781 89.1424 main 0 0 O_________P___ jtwc_io IO031981 22.8000 89.1000 40 0 22.7672 89.1637 4 40 19 47
1981339N11089 1981 112 NI BB NOT_NAMED 1981-12-10 20:00:00 NR 23.2000 89.7000 main 0 __________O___ IO031981 -1 23.2000 89.7000 2 35 20 51

IBTrACS Databaseについて

本データベースは、米国NOAAが公開する1842年以降の世界の熱帯低気圧のベストトラックデータアーカイブInternational Best Track Archive for Climate Stewardship (IBTrACS)を、ウェブで閲覧しやすい形式に変換したものです。

最終更新日:2021-11-26